createdAt,value
2019-02-25T00:00:05.984Z,2.25
2019-02-25T00:01:06.022Z,2.25
2019-02-25T00:02:05.214Z,2.25
2019-02-25T00:03:05.836Z,2.25
2019-02-25T00:04:05.057Z,2.25
2019-02-25T00:05:05.466Z,2.19
2019-02-25T00:06:05.488Z,2.19
2019-02-25T00:07:05.780Z,2.19
2019-02-25T00:08:05.052Z,2.19
2019-02-25T00:09:05.466Z,2.12
2019-02-25T00:10:05.546Z,2.12
2019-02-25T00:11:05.214Z,2.12
2019-02-25T00:12:05.219Z,2.12
2019-02-25T00:13:05.699Z,2.12
2019-02-25T00:14:05.935Z,2.06
2019-02-25T00:15:05.402Z,2.06
2019-02-25T00:16:05.460Z,2.12
2019-02-25T00:17:05.936Z,2.06
2019-02-25T00:18:05.153Z,2.06
2019-02-25T00:19:05.104Z,2.06
2019-02-25T00:20:05.754Z,2.06
2019-02-25T00:21:05.219Z,2.12
2019-02-25T00:22:05.436Z,2.12
2019-02-25T00:23:05.716Z,2.12
2019-02-25T00:24:06.756Z,2.12
2019-02-25T00:25:05.053Z,2.06
2019-02-25T00:26:06.283Z,2.12
2019-02-25T00:27:05.600Z,2.06
2019-02-25T00:28:05.698Z,2.06
2019-02-25T00:29:05.771Z,2.00
2019-02-25T00:30:04.970Z,2.00
2019-02-25T00:31:05.392Z,2.00
2019-02-25T00:32:05.386Z,2.00
2019-02-25T00:33:05.448Z,2.00
2019-02-25T00:34:05.595Z,2.00
2019-02-25T00:35:05.777Z,2.00
2019-02-25T00:36:05.960Z,2.00
2019-02-25T00:37:06.103Z,2.00
2019-02-25T00:38:05.135Z,2.00
2019-02-25T00:39:05.327Z,2.00
2019-02-25T00:40:05.441Z,2.00
2019-02-25T00:41:05.770Z,1.94
2019-02-25T00:42:05.387Z,2.00
2019-02-25T00:43:05.132Z,2.00
2019-02-25T00:44:05.313Z,2.00
2019-02-25T00:45:05.305Z,2.00
2019-02-25T00:46:05.627Z,2.00
2019-02-25T00:47:05.126Z,2.00
2019-02-25T00:48:05.871Z,1.94
2019-02-25T00:49:05.860Z,1.94
2019-02-25T00:50:05.061Z,1.94
2019-02-25T00:51:05.519Z,1.94
2019-02-25T00:52:05.861Z,1.94
2019-02-25T00:53:05.852Z,1.94
2019-02-25T00:54:05.945Z,1.94
2019-02-25T00:55:05.231Z,2.00
2019-02-25T00:56:05.214Z,1.94
2019-02-25T00:57:05.600Z,1.94
2019-02-25T00:58:05.781Z,1.94
2019-02-25T00:59:05.208Z,1.94
2019-02-25T01:00:06.032Z,2.00
2019-02-25T01:01:06.042Z,2.00
2019-02-25T01:02:05.144Z,1.94
2019-02-25T01:03:05.290Z,1.94
2019-02-25T01:04:05.400Z,1.94
2019-02-25T01:05:05.432Z,1.94
2019-02-25T01:06:05.618Z,1.94
2019-02-25T01:07:05.210Z,1.88
2019-02-25T01:08:07.021Z,1.88
2019-02-25T01:09:05.382Z,1.88
2019-02-25T01:10:05.845Z,1.81
2019-02-25T01:11:05.039Z,1.81
2019-02-25T01:12:05.711Z,1.81
2019-02-25T01:13:05.836Z,1.81
2019-02-25T01:14:05.948Z,1.75
2019-02-25T01:15:06.208Z,1.75
2019-02-25T01:16:05.289Z,1.75
2019-02-25T01:17:05.534Z,1.75
2019-02-25T01:18:05.615Z,1.75
2019-02-25T01:19:05.919Z,1.75
2019-02-25T01:20:05.918Z,1.75
2019-02-25T01:21:05.214Z,1.81
2019-02-25T01:22:05.464Z,1.81
2019-02-25T01:23:05.150Z,1.81
2019-02-25T01:24:05.363Z,1.81
2019-02-25T01:25:05.603Z,1.88
2019-02-25T01:26:05.783Z,1.88
2019-02-25T01:27:05.217Z,1.81
2019-02-25T01:28:05.547Z,1.81
2019-02-25T01:29:05.530Z,1.88
2019-02-25T01:30:06.036Z,1.88
2019-02-25T01:31:05.071Z,1.88
2019-02-25T01:32:05.215Z,1.88
2019-02-25T01:33:05.300Z,1.88
2019-02-25T01:34:05.490Z,1.88
2019-02-25T01:35:05.626Z,1.88
2019-02-25T01:36:05.868Z,1.81
2019-02-25T01:37:06.092Z,1.81
2019-02-25T01:38:05.058Z,1.81
2019-02-25T01:39:05.708Z,1.81
2019-02-25T01:40:06.033Z,1.81
2019-02-25T01:41:05.203Z,1.81
2019-02-25T01:42:05.150Z,1.81
2019-02-25T01:43:05.135Z,1.81
2019-02-25T01:44:05.701Z,1.81
2019-02-25T01:45:05.461Z,1.81
2019-02-25T01:46:05.634Z,1.81
2019-02-25T01:47:05.627Z,1.81
2019-02-25T01:48:06.693Z,1.81
2019-02-25T01:49:05.993Z,1.81
2019-02-25T01:50:05.304Z,1.81
2019-02-25T01:51:05.696Z,1.81
2019-02-25T01:52:05.692Z,1.81
2019-02-25T01:53:05.865Z,1.81
2019-02-25T01:54:05.230Z,1.81
2019-02-25T01:55:05.217Z,1.75
2019-02-25T01:56:05.482Z,1.75
2019-02-25T01:57:05.599Z,1.69
2019-02-25T01:58:05.775Z,1.69
2019-02-25T01:59:05.466Z,1.69
2019-02-25T02:00:05.938Z,1.75
2019-02-25T02:01:05.282Z,1.75
2019-02-25T02:02:05.558Z,1.69
2019-02-25T02:03:05.446Z,1.69
2019-02-25T02:04:05.936Z,1.69
2019-02-25T02:05:05.129Z,1.69
2019-02-25T02:06:05.762Z,1.69
2019-02-25T02:07:05.955Z,1.69
2019-02-25T02:08:05.136Z,1.69
2019-02-25T02:09:05.696Z,1.69
2019-02-25T02:10:05.874Z,1.62
2019-02-25T02:11:06.005Z,1.62
2019-02-25T02:12:05.377Z,1.62
2019-02-25T02:13:13.881Z,1.62
2019-02-25T02:14:06.036Z,1.62
2019-02-25T02:15:05.297Z,1.62
2019-02-25T02:16:05.619Z,1.62
2019-02-25T02:17:05.871Z,1.69
2019-02-25T02:18:05.931Z,1.69
2019-02-25T02:19:05.945Z,1.69
2019-02-25T02:20:05.457Z,1.69
2019-02-25T02:21:05.710Z,1.69
2019-02-25T02:22:05.842Z,1.62
2019-02-25T02:23:05.842Z,1.62
2019-02-25T02:24:05.132Z,1.62
2019-02-25T02:25:05.624Z,1.56
2019-02-25T02:26:05.291Z,1.56
2019-02-25T02:27:05.768Z,1.62
2019-02-25T02:28:05.758Z,1.62
2019-02-25T02:29:05.462Z,1.62
2019-02-25T02:30:05.791Z,1.62
2019-02-25T02:31:05.143Z,1.62
2019-02-25T02:32:05.348Z,1.56
2019-02-25T02:33:05.761Z,1.56
2019-02-25T02:34:06.000Z,1.56
2019-02-25T02:35:05.137Z,1.56
2019-02-25T02:36:05.704Z,1.56
2019-02-25T02:37:05.729Z,1.50
2019-02-25T02:38:05.797Z,1.50
2019-02-25T02:39:05.996Z,1.50
2019-02-25T02:40:05.277Z,1.50
2019-02-25T02:41:05.566Z,1.50
2019-02-25T02:42:05.515Z,1.50
2019-02-25T02:43:05.797Z,1.50
2019-02-25T02:44:05.855Z,1.50
2019-02-25T02:45:06.023Z,1.50
2019-02-25T02:46:05.149Z,1.50
2019-02-25T02:47:05.203Z,1.50
2019-02-25T02:48:05.611Z,1.50
2019-02-25T02:49:05.782Z,1.44
2019-02-25T02:50:05.553Z,1.44
2019-02-25T02:51:05.703Z,1.44
2019-02-25T02:52:05.056Z,1.44
2019-02-25T02:53:05.238Z,1.44
2019-02-25T02:54:05.322Z,1.44
2019-02-25T02:55:05.553Z,1.44
2019-02-25T02:56:04.966Z,1.38
2019-02-25T02:57:05.632Z,1.44
2019-02-25T02:58:05.639Z,1.44
2019-02-25T02:59:05.946Z,1.44
2019-02-25T03:00:05.462Z,1.44
2019-02-25T03:01:05.774Z,1.44
2019-02-25T03:02:05.032Z,1.44
2019-02-25T03:03:05.233Z,1.38
2019-02-25T03:04:05.365Z,1.44
2019-02-25T03:05:05.870Z,1.38
2019-02-25T03:06:05.846Z,1.38
2019-02-25T03:07:06.019Z,1.38
2019-02-25T03:08:05.395Z,1.38
2019-02-25T03:09:05.365Z,1.38
2019-02-25T03:10:05.693Z,1.38
2019-02-25T03:11:05.305Z,1.44
2019-02-25T03:12:05.867Z,1.44
2019-02-25T03:13:05.867Z,1.44
2019-02-25T03:14:05.523Z,1.44
2019-02-25T03:15:05.620Z,1.44
2019-02-25T03:16:05.139Z,1.44
2019-02-25T03:17:05.301Z,1.44
2019-02-25T03:18:05.855Z,1.44
2019-02-25T03:19:05.936Z,1.44
2019-02-25T03:20:05.282Z,1.38
2019-02-25T03:21:05.702Z,1.38
2019-02-25T03:22:05.139Z,1.31
2019-02-25T03:23:05.908Z,1.31
2019-02-25T03:24:05.535Z,1.25
2019-02-25T03:25:05.627Z,1.31
2019-02-25T03:26:05.051Z,1.31
2019-02-25T03:27:05.622Z,1.31
2019-02-25T03:28:05.689Z,1.31
2019-02-25T03:29:05.328Z,1.31
2019-02-25T03:30:05.369Z,1.31
2019-02-25T03:31:05.063Z,1.31
2019-02-25T03:32:05.678Z,1.31
2019-02-25T03:33:05.966Z,1.31
2019-02-25T03:34:05.064Z,1.31
2019-02-25T03:35:05.788Z,1.31
2019-02-25T03:36:05.855Z,1.25
2019-02-25T03:37:06.110Z,1.25
2019-02-25T03:38:05.431Z,1.25
2019-02-25T03:39:06.028Z,1.25
2019-02-25T03:40:05.208Z,1.25
2019-02-25T03:41:05.879Z,1.25
2019-02-25T03:42:05.924Z,1.25
2019-02-25T03:43:05.456Z,1.25
2019-02-25T03:44:06.010Z,1.19
2019-02-25T03:45:06.040Z,1.19
2019-02-25T03:46:05.313Z,1.19
2019-02-25T03:47:05.533Z,1.19
2019-02-25T03:48:06.075Z,1.19
2019-02-25T03:49:05.381Z,1.19
2019-02-25T03:50:06.003Z,1.19
2019-02-25T03:51:05.149Z,1.25
2019-02-25T03:52:05.365Z,1.25
2019-02-25T03:53:05.917Z,1.25
2019-02-25T03:54:05.204Z,1.19
2019-02-25T03:55:05.693Z,1.25
2019-02-25T03:56:05.789Z,1.19
2019-02-25T03:57:05.208Z,1.19
2019-02-25T03:58:05.546Z,1.19
2019-02-25T03:59:06.853Z,1.19
2019-02-25T04:00:05.125Z,1.19
2019-02-25T04:01:05.616Z,1.19
2019-02-25T04:02:05.287Z,1.19
2019-02-25T04:03:05.474Z,1.19
2019-02-25T04:04:05.918Z,1.19
2019-02-25T04:05:05.554Z,1.19
2019-02-25T04:06:05.606Z,1.19
2019-02-25T04:07:05.239Z,1.19
2019-02-25T04:08:05.236Z,1.19
2019-02-25T04:09:05.635Z,1.25
2019-02-25T04:10:05.705Z,1.25
2019-02-25T04:11:05.891Z,1.19
2019-02-25T04:12:06.007Z,1.19
2019-02-25T04:13:05.132Z,1.19
2019-02-25T04:14:05.582Z,1.12
2019-02-25T04:15:05.872Z,1.12
2019-02-25T04:16:05.913Z,1.12
2019-02-25T04:17:05.633Z,1.06
2019-02-25T04:18:05.771Z,1.12
2019-02-25T04:19:05.960Z,1.06
2019-02-25T04:20:05.942Z,1.06
2019-02-25T04:21:05.463Z,1.06
2019-02-25T04:22:05.600Z,1.06
2019-02-25T04:23:05.334Z,1.06
2019-02-25T04:24:05.691Z,1.12
2019-02-25T04:25:05.215Z,1.12
2019-02-25T04:26:05.392Z,1.06
2019-02-25T04:27:05.467Z,1.06
2019-02-25T04:28:05.366Z,1.06
2019-02-25T04:29:05.471Z,1.06
2019-02-25T04:30:05.941Z,1.06
2019-02-25T04:31:06.026Z,1.25
2019-02-25T04:32:05.622Z,1.44
2019-02-25T04:33:05.515Z,1.44
2019-02-25T04:34:05.831Z,1.44
2019-02-25T04:35:06.041Z,1.44
2019-02-25T04:36:05.122Z,1.44
2019-02-25T04:37:05.622Z,1.50
2019-02-25T04:38:05.766Z,1.56
2019-02-25T04:39:05.853Z,1.56
2019-02-25T04:40:05.419Z,1.56
2019-02-25T04:41:05.868Z,1.56
2019-02-25T04:42:05.455Z,1.62
2019-02-25T04:43:05.871Z,1.50
2019-02-25T04:44:05.997Z,1.62
2019-02-25T04:45:05.161Z,1.69
2019-02-25T04:46:05.285Z,1.94
2019-02-25T04:47:05.942Z,2.06
2019-02-25T04:48:06.016Z,2.12
2019-02-25T04:49:05.036Z,2.12
2019-02-25T04:50:05.460Z,2.19
2019-02-25T04:51:05.538Z,2.19
2019-02-25T04:52:06.005Z,2.19
2019-02-25T04:53:05.625Z,2.31
2019-02-25T04:54:05.921Z,2.38
2019-02-25T04:55:05.539Z,2.38
2019-02-25T04:56:05.684Z,2.38
2019-02-25T04:57:05.148Z,2.31
2019-02-25T04:58:05.206Z,2.38
2019-02-25T04:59:05.783Z,2.31
2019-02-25T05:00:05.861Z,2.25
2019-02-25T05:01:06.027Z,2.25
2019-02-25T05:02:05.709Z,2.31
2019-02-25T05:03:06.013Z,2.38
2019-02-25T05:04:05.606Z,2.38
2019-02-25T05:05:05.881Z,2.38
2019-02-25T05:06:05.783Z,2.44
2019-02-25T05:07:05.034Z,2.44
2019-02-25T05:08:05.404Z,2.44
2019-02-25T05:09:05.620Z,2.44
2019-02-25T05:10:05.126Z,2.44
2019-02-25T05:11:05.222Z,2.38
2019-02-25T05:12:05.527Z,2.38
2019-02-25T05:13:05.152Z,2.31
2019-02-25T05:14:05.214Z,2.38
2019-02-25T05:15:05.403Z,2.44
2019-02-25T05:16:05.442Z,2.38
2019-02-25T05:17:05.623Z,2.44
2019-02-25T05:18:05.224Z,2.44
2019-02-25T05:19:05.556Z,2.50
2019-02-25T05:20:05.521Z,2.44
2019-02-25T05:21:05.232Z,2.38
2019-02-25T05:22:05.061Z,2.38
2019-02-25T05:23:05.708Z,2.31
2019-02-25T05:24:05.041Z,2.38
2019-02-25T05:25:05.808Z,2.44
2019-02-25T05:26:05.133Z,2.44
2019-02-25T05:27:05.216Z,2.50
2019-02-25T05:28:05.943Z,2.50
2019-02-25T05:29:05.527Z,2.38
2019-02-25T05:30:05.774Z,2.38
2019-02-25T05:31:05.307Z,2.31
2019-02-25T05:32:05.289Z,2.38
2019-02-25T05:33:06.029Z,2.31
2019-02-25T05:34:05.532Z,2.19
2019-02-25T05:35:05.637Z,2.31
2019-02-25T05:36:05.690Z,2.38
2019-02-25T05:37:05.859Z,2.44
2019-02-25T05:38:05.925Z,2.50
2019-02-25T05:39:06.103Z,2.56
2019-02-25T05:40:05.149Z,2.50
2019-02-25T05:41:05.235Z,2.44
2019-02-25T05:42:05.382Z,2.38
2019-02-25T05:43:07.232Z,2.56
2019-02-25T05:44:05.456Z,2.50
2019-02-25T05:45:05.965Z,2.50
2019-02-25T05:46:05.303Z,2.50
2019-02-25T05:47:05.435Z,2.50
2019-02-25T05:48:05.857Z,2.50
2019-02-25T05:49:06.211Z,2.44
2019-02-25T05:50:05.144Z,2.19
2019-02-25T05:51:05.557Z,1.94
2019-02-25T05:52:05.524Z,1.69
2019-02-25T05:53:05.704Z,1.31
2019-02-25T05:54:05.775Z,1.06
2019-02-25T05:55:05.958Z,0.81
2019-02-25T05:56:05.066Z,0.62
2019-02-25T05:57:05.376Z,0.44
2019-02-25T05:58:05.841Z,0.25
2019-02-25T05:59:05.297Z,0.06
2019-02-25T06:00:05.775Z,-0.06
2019-02-25T06:01:05.393Z,-0.19
2019-02-25T06:02:05.570Z,-0.25
2019-02-25T06:03:05.155Z,-0.31
2019-02-25T06:04:05.686Z,-0.38
2019-02-25T06:05:05.774Z,-0.44
2019-02-25T06:06:05.281Z,-0.50
2019-02-25T06:07:05.465Z,-0.56
2019-02-25T06:08:06.034Z,-0.62
2019-02-25T06:09:05.196Z,-0.62
2019-02-25T06:10:05.455Z,-0.69
2019-02-25T06:11:05.881Z,-0.62
2019-02-25T06:12:05.770Z,-0.62
2019-02-25T06:13:06.023Z,-0.69
2019-02-25T06:14:05.468Z,-0.75
2019-02-25T06:15:05.706Z,-0.75
2019-02-25T06:16:05.858Z,-0.81
2019-02-25T06:17:05.615Z,-0.88
2019-02-25T06:18:05.880Z,-0.88
2019-02-25T06:19:05.859Z,-0.88
2019-02-25T06:20:05.223Z,-0.94
2019-02-25T06:21:05.475Z,-0.94
2019-02-25T06:22:05.132Z,-0.94
2019-02-25T06:23:05.318Z,-1.00
2019-02-25T06:24:05.464Z,-1.00
2019-02-25T06:25:06.040Z,-0.88
2019-02-25T06:26:05.607Z,-0.94
2019-02-25T06:27:05.134Z,-0.94
2019-02-25T06:28:05.482Z,-1.00
2019-02-25T06:29:05.708Z,-1.00
2019-02-25T06:30:05.141Z,-1.00
2019-02-25T06:31:05.233Z,-1.06
2019-02-25T06:32:05.960Z,-0.94
2019-02-25T06:33:05.845Z,-0.88
2019-02-25T06:34:05.206Z,-0.94
2019-02-25T06:35:05.372Z,-0.94
2019-02-25T06:36:05.554Z,-1.00
2019-02-25T06:37:05.698Z,-0.94
2019-02-25T06:38:06.008Z,-0.88
2019-02-25T06:39:05.547Z,-0.81
2019-02-25T06:40:05.724Z,-0.75
2019-02-25T06:41:05.782Z,-0.75
2019-02-25T06:42:05.541Z,-0.69
2019-02-25T06:43:05.764Z,-0.69
2019-02-25T06:44:05.048Z,-0.69
2019-02-25T06:45:05.137Z,-0.69
2019-02-25T06:46:05.682Z,-0.56
2019-02-25T06:47:05.943Z,-0.50
2019-02-25T06:48:05.540Z,-0.31
2019-02-25T06:49:05.635Z,-0.25
2019-02-25T06:50:05.770Z,-0.19
2019-02-25T06:51:05.938Z,-0.06
2019-02-25T06:52:05.141Z,0.06
2019-02-25T06:53:05.292Z,0.31
2019-02-25T06:54:05.435Z,0.50
2019-02-25T06:55:05.615Z,0.69
2019-02-25T06:56:05.835Z,0.88
2019-02-25T06:57:05.399Z,0.94
2019-02-25T06:58:05.687Z,1.00
2019-02-25T06:59:05.787Z,1.06
2019-02-25T07:00:05.998Z,1.12
2019-02-25T07:01:05.556Z,1.19
2019-02-25T07:02:05.603Z,1.25
2019-02-25T07:03:05.134Z,1.38
2019-02-25T07:04:05.526Z,1.50
2019-02-25T07:05:05.617Z,1.56
2019-02-25T07:06:05.196Z,1.69
2019-02-25T07:07:05.286Z,1.75
2019-02-25T07:08:05.528Z,1.88
2019-02-25T07:09:05.691Z,2.00
2019-02-25T07:10:05.435Z,2.19
2019-02-25T07:11:05.937Z,2.44
2019-02-25T07:12:05.062Z,2.50
2019-02-25T07:13:05.379Z,2.62
2019-02-25T07:14:05.437Z,2.75
2019-02-25T07:15:05.217Z,2.81
2019-02-25T07:16:05.364Z,2.88
2019-02-25T07:17:05.393Z,3.00
2019-02-25T07:18:06.868Z,3.12
2019-02-25T07:19:05.398Z,3.19
2019-02-25T07:20:05.438Z,3.31
2019-02-25T07:21:05.130Z,3.44
2019-02-25T07:22:05.994Z,3.56
2019-02-25T07:23:05.303Z,4.06
2019-02-25T07:24:05.132Z,4.50
2019-02-25T07:25:05.881Z,4.56
2019-02-25T07:26:05.843Z,4.62
2019-02-25T07:27:05.935Z,4.69
2019-02-25T07:28:05.604Z,4.81
2019-02-25T07:29:05.956Z,4.88
2019-02-25T07:30:05.029Z,5.00
2019-02-25T07:31:05.877Z,5.06
2019-02-25T07:32:05.763Z,5.12
2019-02-25T07:33:05.466Z,5.19
2019-02-25T07:34:06.847Z,5.31
2019-02-25T07:35:05.468Z,5.38
2019-02-25T07:36:05.064Z,5.44
2019-02-25T07:37:06.651Z,5.50
2019-02-25T07:38:05.196Z,5.69
2019-02-25T07:39:06.501Z,5.81
2019-02-25T07:40:05.916Z,5.88
2019-02-25T07:41:05.230Z,6.00
2019-02-25T07:42:05.200Z,6.06
2019-02-25T07:43:05.470Z,6.12
2019-02-25T07:44:05.463Z,6.25
2019-02-25T07:45:05.789Z,6.31
2019-02-25T07:46:05.666Z,6.38
2019-02-25T07:47:05.839Z,6.44
2019-02-25T07:48:05.275Z,6.50
2019-02-25T07:49:05.544Z,6.56
2019-02-25T07:50:05.373Z,6.69
2019-02-25T07:51:05.781Z,7.25
2019-02-25T07:52:05.860Z,7.31
2019-02-25T07:53:05.161Z,7.31
2019-02-25T07:54:06.792Z,7.31
2019-02-25T07:55:05.387Z,7.31
2019-02-25T07:56:05.850Z,7.38
2019-02-25T07:57:05.385Z,7.38
2019-02-25T07:58:05.849Z,7.38
2019-02-25T07:59:05.536Z,7.44
2019-02-25T08:00:05.226Z,7.50
2019-02-25T08:01:05.540Z,7.50
2019-02-25T08:02:06.002Z,7.56
2019-02-25T08:03:05.798Z,7.56
2019-02-25T08:04:05.829Z,7.56
2019-02-25T08:05:06.009Z,7.56
2019-02-25T08:06:05.283Z,7.56
2019-02-25T08:07:05.858Z,7.56
2019-02-25T08:08:05.280Z,7.56
2019-02-25T08:09:05.854Z,7.56
2019-02-25T08:10:05.931Z,7.62
2019-02-25T08:11:05.054Z,7.69
2019-02-25T08:12:05.375Z,7.75
2019-02-25T08:13:05.378Z,7.75
2019-02-25T08:14:05.870Z,7.75
2019-02-25T08:15:06.120Z,7.81
2019-02-25T08:16:05.210Z,7.88
2019-02-25T08:17:05.552Z,8.00
2019-02-25T08:18:05.440Z,8.06
2019-02-25T08:19:05.232Z,8.06
2019-02-25T08:20:05.371Z,8.06
2019-02-25T08:21:05.473Z,8.12
2019-02-25T08:22:05.538Z,8.12
2019-02-25T08:23:05.701Z,8.12
2019-02-25T08:24:05.223Z,8.12
2019-02-25T08:25:05.514Z,8.12
2019-02-25T08:26:05.548Z,8.12
2019-02-25T08:27:05.716Z,8.12
2019-02-25T08:28:05.806Z,8.12
2019-02-25T08:29:05.763Z,8.19
2019-02-25T08:30:05.218Z,8.25
2019-02-25T08:31:06.028Z,8.25
2019-02-25T08:32:05.798Z,8.25
2019-02-25T08:33:05.876Z,8.25
2019-02-25T08:34:05.918Z,8.19
2019-02-25T08:35:05.469Z,8.19
2019-02-25T08:36:05.277Z,8.12
2019-02-25T08:37:05.720Z,8.12
2019-02-25T08:38:05.441Z,8.06
2019-02-25T08:39:05.641Z,8.00
2019-02-25T08:40:05.702Z,8.00
2019-02-25T08:41:05.143Z,8.00
2019-02-25T08:42:05.276Z,7.94
2019-02-25T08:43:05.880Z,7.94
2019-02-25T08:44:05.845Z,7.94
2019-02-25T08:45:05.724Z,8.00
2019-02-25T08:46:05.687Z,8.00
2019-02-25T08:47:06.112Z,8.00
2019-02-25T08:48:05.839Z,8.00
2019-02-25T08:49:06.125Z,8.06
2019-02-25T08:50:05.171Z,8.06
2019-02-25T08:51:05.518Z,8.06
2019-02-25T08:52:05.618Z,8.06
2019-02-25T08:53:05.705Z,8.06
2019-02-25T08:54:05.208Z,8.06
2019-02-25T08:55:05.392Z,8.12
2019-02-25T08:56:05.439Z,8.06
2019-02-25T08:57:05.940Z,8.12
2019-02-25T08:58:05.354Z,8.12
2019-02-25T08:59:06.031Z,8.25
2019-02-25T09:00:06.010Z,8.25
2019-02-25T09:01:05.775Z,8.19
2019-02-25T09:02:05.373Z,8.19
2019-02-25T09:03:05.542Z,8.25
2019-02-25T09:04:06.008Z,8.25
2019-02-25T09:05:05.713Z,8.44
2019-02-25T09:06:05.286Z,8.81
2019-02-25T09:07:05.871Z,8.94
2019-02-25T09:08:05.909Z,9.12
2019-02-25T09:09:05.704Z,9.19
2019-02-25T09:10:05.285Z,9.31
2019-02-25T09:11:13.865Z,9.25
2019-02-25T09:12:05.782Z,9.19
2019-02-25T09:13:05.322Z,9.12
2019-02-25T09:14:05.771Z,9.06
2019-02-25T09:15:05.066Z,9.00
2019-02-25T09:16:05.302Z,8.88
2019-02-25T09:17:05.379Z,8.88
2019-02-25T09:18:05.484Z,8.81
2019-02-25T09:19:05.696Z,8.75
2019-02-25T09:20:05.711Z,8.75
2019-02-25T09:21:05.393Z,8.69
2019-02-25T09:22:05.542Z,8.69
2019-02-25T09:23:05.275Z,8.62
2019-02-25T09:24:06.037Z,8.62
2019-02-25T09:25:05.148Z,8.56
2019-02-25T09:26:05.301Z,8.56
2019-02-25T09:27:05.389Z,8.56
2019-02-25T09:28:05.732Z,8.50
2019-02-25T09:29:05.651Z,8.50
2019-02-25T09:30:05.946Z,8.50
2019-02-25T09:31:05.813Z,8.50
2019-02-25T09:32:05.318Z,8.50
2019-02-25T09:33:05.473Z,8.44
2019-02-25T09:34:06.012Z,8.44
2019-02-25T09:35:05.243Z,8.44
2019-02-25T09:36:05.711Z,8.44
2019-02-25T09:37:05.442Z,8.44
2019-02-25T09:38:05.655Z,8.44
2019-02-25T09:39:05.616Z,8.50
2019-02-25T09:40:05.858Z,8.69
2019-02-25T09:41:05.706Z,8.62
2019-02-25T09:42:05.073Z,8.62
2019-02-25T09:43:05.216Z,8.62
2019-02-25T09:44:05.285Z,8.56
2019-02-25T09:45:06.788Z,8.56
2019-02-25T09:46:05.056Z,8.56
2019-02-25T09:47:05.703Z,8.56
2019-02-25T09:48:05.786Z,8.56
2019-02-25T09:49:05.950Z,8.56
2019-02-25T09:50:05.196Z,8.56
2019-02-25T09:51:05.994Z,8.50
2019-02-25T09:52:05.704Z,8.50
2019-02-25T09:53:07.303Z,8.50
2019-02-25T09:54:05.925Z,8.50
2019-02-25T09:55:05.212Z,8.50
2019-02-25T09:56:05.305Z,8.50
2019-02-25T09:57:05.952Z,8.56
2019-02-25T09:58:06.024Z,8.50
2019-02-25T09:59:05.735Z,8.56
2019-02-25T10:00:06.004Z,8.56
2019-02-25T10:01:05.114Z,8.56
2019-02-25T10:02:05.459Z,8.62
2019-02-25T10:03:05.623Z,8.62
2019-02-25T10:04:05.762Z,8.62
2019-02-25T10:05:05.304Z,8.62
2019-02-25T10:06:05.941Z,8.69
2019-02-25T10:07:05.458Z,8.69
2019-02-25T10:08:05.786Z,8.69
2019-02-25T10:09:05.863Z,8.75
2019-02-25T10:10:05.534Z,8.75
2019-02-25T10:11:05.609Z,8.75
2019-02-25T10:12:06.032Z,8.81
2019-02-25T10:13:05.137Z,8.81
2019-02-25T10:14:05.287Z,8.88
2019-02-25T10:15:05.473Z,8.88
2019-02-25T10:16:05.798Z,8.88
2019-02-25T10:17:05.763Z,8.94
2019-02-25T10:18:05.933Z,8.94
2019-02-25T10:19:06.130Z,9.00
2019-02-25T10:20:05.052Z,9.00
2019-02-25T10:21:05.141Z,9.00
2019-02-25T10:22:05.760Z,9.06
2019-02-25T10:23:05.301Z,9.06
2019-02-25T10:24:05.936Z,9.12
2019-02-25T10:25:05.565Z,9.12
2019-02-25T10:26:05.596Z,9.19
2019-02-25T10:27:05.062Z,9.19
2019-02-25T10:28:05.202Z,9.25
2019-02-25T10:29:05.572Z,9.25
2019-02-25T10:30:05.699Z,9.31
2019-02-25T10:31:05.208Z,9.31
2019-02-25T10:32:06.519Z,9.38
2019-02-25T10:33:05.628Z,9.38
2019-02-25T10:34:05.049Z,9.44
2019-02-25T10:35:05.221Z,9.44
2019-02-25T10:36:05.756Z,9.50
2019-02-25T10:37:05.292Z,9.50
2019-02-25T10:38:05.619Z,9.56
2019-02-25T10:39:05.626Z,9.56
2019-02-25T10:40:05.141Z,9.56
2019-02-25T10:41:05.710Z,9.62
2019-02-25T10:42:05.776Z,9.69
2019-02-25T10:43:05.299Z,9.69
2019-02-25T10:44:06.439Z,9.75
2019-02-25T10:45:07.178Z,9.75
2019-02-25T10:46:06.729Z,9.81
2019-02-25T10:47:04.977Z,9.88
2019-02-25T10:48:05.534Z,9.88
2019-02-25T10:49:11.434Z,9.94
2019-02-25T10:50:05.697Z,9.94
2019-02-25T10:51:07.033Z,10.00
2019-02-25T10:52:06.933Z,10.00
2019-02-25T10:53:05.536Z,10.06
2019-02-25T10:54:05.309Z,10.12
2019-02-25T10:55:05.704Z,10.12
2019-02-25T10:56:05.853Z,10.19
2019-02-25T10:57:05.937Z,10.19
2019-02-25T10:58:05.059Z,10.25
2019-02-25T10:59:06.145Z,10.25
2019-02-25T11:00:07.266Z,10.31
2019-02-25T11:01:07.329Z,10.38
2019-02-25T11:02:05.926Z,10.38
2019-02-25T11:03:05.927Z,10.44
2019-02-25T11:04:05.376Z,10.44
2019-02-25T11:05:05.874Z,10.50
2019-02-25T11:06:06.010Z,10.56
2019-02-25T11:07:05.672Z,10.56
2019-02-25T11:08:07.347Z,10.62
2019-02-25T11:09:06.952Z,10.69
2019-02-25T11:10:05.384Z,10.69
2019-02-25T11:11:05.706Z,10.75
2019-02-25T11:12:05.756Z,10.75
2019-02-25T11:13:05.931Z,10.81
2019-02-25T11:14:07.017Z,10.81
2019-02-25T11:15:07.266Z,10.88
2019-02-25T11:16:05.684Z,10.94
2019-02-25T11:17:05.842Z,11.00
2019-02-25T11:18:05.156Z,11.00
2019-02-25T11:19:05.400Z,11.06
2019-02-25T11:20:05.721Z,11.06
2019-02-25T11:21:06.047Z,11.12
2019-02-25T11:22:07.627Z,11.12
2019-02-25T11:23:05.695Z,11.19
2019-02-25T11:24:05.283Z,11.25
2019-02-25T11:25:05.775Z,11.25
2019-02-25T11:26:05.934Z,11.31
2019-02-25T11:27:07.256Z,11.38
2019-02-25T11:28:07.474Z,11.38
2019-02-25T11:29:07.230Z,11.44
2019-02-25T11:30:05.613Z,11.50
2019-02-25T11:31:05.630Z,11.50
2019-02-25T11:32:05.686Z,11.56
2019-02-25T11:33:05.302Z,11.56
2019-02-25T11:34:07.978Z,11.62
2019-02-25T11:35:06.274Z,11.69
2019-02-25T11:36:05.155Z,11.69
2019-02-25T11:37:05.301Z,11.75
2019-02-25T11:38:05.695Z,11.75
2019-02-25T11:39:06.851Z,11.81
2019-02-25T11:40:05.858Z,11.88
2019-02-25T11:41:06.568Z,11.88
2019-02-25T11:42:06.147Z,11.94
2019-02-25T11:43:05.940Z,11.94
2019-02-25T11:44:05.289Z,12.00
2019-02-25T11:45:05.869Z,12.00
2019-02-25T11:46:05.913Z,12.06
2019-02-25T11:47:05.056Z,12.12
2019-02-25T11:48:05.568Z,12.12
2019-02-25T11:49:05.697Z,12.19
2019-02-25T11:50:05.922Z,12.19
2019-02-25T11:51:05.068Z,12.25
2019-02-25T11:52:05.620Z,12.25
2019-02-25T11:53:05.541Z,12.31
2019-02-25T11:54:05.151Z,12.31
2019-02-25T11:55:05.558Z,12.38
2019-02-25T11:56:05.834Z,12.38
2019-02-25T11:57:05.462Z,12.44
2019-02-25T11:58:05.610Z,12.44
2019-02-25T11:59:05.779Z,12.50
2019-02-25T12:00:05.958Z,12.50
2019-02-25T12:01:05.156Z,12.56
2019-02-25T12:02:05.318Z,12.56
2019-02-25T12:03:05.394Z,12.62
2019-02-25T12:04:05.867Z,12.62
2019-02-25T12:05:05.156Z,12.69
2019-02-25T12:06:05.155Z,12.69
2019-02-25T12:07:05.398Z,12.75
2019-02-25T12:08:05.445Z,12.75
2019-02-25T12:09:05.937Z,12.81
2019-02-25T12:10:05.451Z,12.81
2019-02-25T12:11:05.863Z,12.88
2019-02-25T12:12:05.935Z,12.88
2019-02-25T12:13:05.470Z,12.94
2019-02-25T12:14:05.533Z,12.94
2019-02-25T12:15:05.627Z,13.00
2019-02-25T12:16:05.777Z,13.00
2019-02-25T12:17:05.956Z,13.00
2019-02-25T12:18:05.950Z,13.06
2019-02-25T12:19:05.061Z,13.06
2019-02-25T12:20:05.613Z,13.12
2019-02-25T12:21:05.547Z,13.12
2019-02-25T12:22:05.204Z,13.19
2019-02-25T12:23:05.863Z,13.19
2019-02-25T12:24:05.991Z,13.19
2019-02-25T12:25:05.533Z,13.25
2019-02-25T12:26:05.685Z,13.25
2019-02-25T12:27:05.772Z,13.25
2019-02-25T12:28:05.049Z,13.31
2019-02-25T12:29:10.731Z,13.31
2019-02-25T12:30:05.370Z,13.31
2019-02-25T12:31:05.512Z,13.38
2019-02-25T12:32:05.917Z,13.38
2019-02-25T12:33:05.714Z,13.44
2019-02-25T12:34:05.714Z,13.44
2019-02-25T12:35:05.127Z,13.44
2019-02-25T12:36:05.459Z,13.50
2019-02-25T12:37:05.685Z,13.50
2019-02-25T12:38:06.004Z,13.50
2019-02-25T12:39:06.113Z,13.56
2019-02-25T12:40:05.050Z,13.56
2019-02-25T12:41:05.142Z,13.56
2019-02-25T12:42:05.768Z,13.62
2019-02-25T12:43:05.120Z,13.62
2019-02-25T12:44:05.384Z,13.62
2019-02-25T12:45:05.468Z,13.69
2019-02-25T12:46:05.594Z,13.69
2019-02-25T12:47:06.117Z,13.69
2019-02-25T12:48:05.196Z,13.75
2019-02-25T12:49:06.207Z,13.75
2019-02-25T12:50:05.063Z,13.81
2019-02-25T12:51:05.305Z,13.81
2019-02-25T12:52:05.387Z,13.81
2019-02-25T12:53:05.960Z,13.88
2019-02-25T12:54:05.939Z,13.88
2019-02-25T12:55:05.237Z,13.88
2019-02-25T12:56:05.214Z,13.88
2019-02-25T12:57:05.311Z,13.94
2019-02-25T12:58:05.869Z,13.94
2019-02-25T12:59:05.406Z,13.94
2019-02-25T13:00:06.034Z,13.94
2019-02-25T13:01:05.226Z,13.94
2019-02-25T13:02:05.841Z,14.00
2019-02-25T13:03:06.028Z,14.00
2019-02-25T13:04:05.051Z,14.00
2019-02-25T13:05:05.885Z,14.06
2019-02-25T13:06:05.932Z,14.06
2019-02-25T13:07:05.225Z,14.06
2019-02-25T13:08:05.231Z,14.06
2019-02-25T13:09:05.466Z,14.12
2019-02-25T13:10:05.524Z,14.12
2019-02-25T13:11:05.150Z,14.12
2019-02-25T13:12:05.617Z,14.19